Time;durP1;ratioP1;P1;durP2;ratioP2;P2;SDS_P1;SDS_P2;PMS_P1;PMS_P2;Temp;Humidity;BMP_temperature;BMP_pressure;BME280_temperature;BME280_humidity;BME280_pressure;Samples;Min_cycle;Max_cycle;Signal;HPM_P1;HPM_P2
2023/12/10 00:00:37;;;;;;;23.03;4.03;;;8.20;99.90;;;;;;4940354;29;20079;-96
2023/12/10 00:03:06;;;;;;;43.03;12.93;;;8.30;99.90;;;;;;4939660;29;20047;-95
2023/12/10 00:05:50;;;;;;;30.23;7.17;;;8.20;99.90;;;;;;4938069;29;20044;-95
2023/12/10 00:08:16;;;;;;;25.87;7.80;;;8.10;99.90;;;;;;4936693;29;20532;-94
2023/12/10 00:10:42;;;;;;;35.07;9.40;;;8.00;99.90;;;;;;4936894;29;20039;-96
2023/12/10 00:13:09;;;;;;;27.43;5.63;;;8.00;99.90;;;;;;4938095;29;20071;-95
2023/12/10 00:15:40;;;;;;;22.33;5.17;;;7.90;99.90;;;;;;4939756;29;20047;-94
2023/12/10 00:18:05;;;;;;;17.67;4.20;;;7.90;99.90;;;;;;4939739;29;20047;-96
2023/12/10 00:20:37;;;;;;;39.60;11.73;;;8.00;99.90;;;;;;4937856;29;20040;-95
2023/12/10 00:23:15;;;;;;;22.60;3.70;;;7.90;99.90;;;;;;4937767;29;20047;-95
2023/12/10 00:25:53;;;;;;;27.10;5.13;;;8.00;99.90;;;;;;4941415;29;20047;-95
2023/12/10 00:31:43;;;;;;;25.10;5.63;;;8.00;99.90;;;;;;4954226;23;20055;-96
2023/12/10 00:34:27;;;;;;;28.13;5.27;;;8.10;99.90;;;;;;5153398;23;20268;-96
2023/12/10 00:36:53;;;;;;;23.03;4.63;;;8.10;99.90;;;;;;4943626;29;20051;-96
2023/12/10 00:39:19;;;;;;;25.43;5.13;;;8.00;99.90;;;;;;4929878;29;20032;-95
2023/12/10 00:41:46;;;;;;;23.20;5.20;;;7.40;99.90;;;;;;4918781;29;20049;-96
2023/12/10 00:44:21;;;;;;;24.27;4.30;;;8.20;99.90;;;;;;4922522;29;20090;-96
2023/12/10 00:50:13;;;;;;;28.33;9.53;;;7.80;99.90;;;;;;4966537;23;20083;-96
2023/12/10 00:52:48;;;;;;;22.47;4.13;;;8.90;99.90;;;;;;4948607;29;20133;-96
2023/12/10 00:55:17;;;;;;;25.17;6.03;;;8.00;99.90;;;;;;4945202;29;20110;-95
2023/12/10 00:57:48;;;;;;;23.33;5.73;;;8.00;99.90;;;;;;4946956;29;20055;-96
2023/12/10 01:00:30;;;;;;;26.43;5.43;;;8.10;99.90;;;;;;4959311;28;20031;-95
2023/12/10 01:03:05;;;;;;;28.47;4.20;;;8.20;99.90;;;;;;4943658;28;20031;-96
2023/12/10 01:08:39;;;;;;;21.13;3.80;;;8.30;99.90;;;;;;4893691;28;20061;-96
2023/12/10 01:22:02;;;;;;;17.40;3.77;;;7.60;99.90;;;;;;4917681;29;20051;-96
2023/12/10 01:24:35;;;;;;;20.27;3.83;;;6.90;99.90;;;;;;4899879;29;20055;-96
2023/12/10 01:28:04;;;;;;;22.23;3.80;;;8.30;99.90;;;;;;4895734;29;20129;-95
2023/12/10 01:30:48;;;;;;;17.03;3.40;;;8.00;99.90;;;;;;4827860;29;20083;-96
2023/12/10 01:33:29;;;;;;;15.63;3.28;;;7.90;99.90;;;;;;4829928;29;20060;-96
2023/12/10 01:36:07;;;;;;;18.13;4.23;;;7.80;99.90;;;;;;4831938;29;20060;-96
2023/12/10 01:41:34;;;;;;;19.03;3.30;;;7.80;99.90;;;;;;4950383;23;20173;-95
2023/12/10 01:44:04;;;;;;;19.37;3.80;;;6.80;99.90;;;;;;4926372;29;20055;-96
2023/12/10 01:49:19;;;;;;;17.97;3.33;;;7.70;99.90;;;;;;4970078;23;20052;-94
2023/12/10 01:51:47;;;;;;;19.37;3.20;;;7.60;99.90;;;;;;4947934;23;20078;-96
2023/12/10 01:54:22;;;;;;;25.00;3.60;;;7.70;99.90;;;;;;4941882;29;20055;-95
2023/12/10 01:56:52;;;;;;;22.43;4.70;;;7.70;99.90;;;;;;4946601;23;20048;-96
2023/12/10 01:59:31;;;;;;;21.53;3.50;;;7.70;99.90;;;;;;4940093;29;20051;-96
2023/12/10 02:01:57;;;;;;;21.60;4.63;;;7.60;99.90;;;;;;4941446;29;20090;-95
2023/12/10 02:04:23;;;;;;;20.33;3.30;;;6.50;99.90;;;;;;4942210;29;20082;-96
2023/12/10 02:06:49;;;;;;;20.13;3.30;;;7.50;99.90;;;;;;4955383;29;20051;-95
2023/12/10 02:09:29;;;;;;;20.73;3.43;;;7.60;99.90;;;;;;4942090;29;20054;-95
2023/12/10 02:12:14;;;;;;;18.53;2.77;;;7.60;99.90;;;;;;4940542;29;20365;-96
2023/12/10 02:19:56;;;;;;;19.53;3.43;;;7.60;99.90;;;;;;5106330;23;20493;-94
2023/12/10 02:22:25;;;;;;;23.27;3.33;;;7.50;99.90;;;;;;4923705;29;20048;-95
2023/12/10 02:27:17;;;;;;;18.23;3.33;;;7.60;99.90;;;;;;4961166;23;20182;-96
2023/12/10 02:29:49;;;;;;;24.87;3.70;;;7.70;99.90;;;;;;4958823;29;20047;-94
2023/12/10 02:34:59;;;;;;;21.00;3.10;;;7.50;99.90;;;;;;5218446;23;20055;-95
2023/12/10 02:37:28;;;;;;;21.63;3.20;;;7.40;99.90;;;;;;4939950;29;20150;-95
2023/12/10 02:39:54;;;;;;;21.37;3.73;;;7.40;99.90;;;;;;4923184;29;20090;-94
2023/12/10 02:42:21;;;;;;;17.83;3.97;;;7.50;99.90;;;;;;4922931;29;20047;-94
2023/12/10 02:44:49;;;;;;;20.27;3.40;;;7.50;99.90;;;;;;4939039;29;20043;-94
2023/12/10 02:47:17;;;;;;;21.93;3.63;;;7.40;99.90;;;;;;4923174;29;20047;-94
2023/12/10 02:49:43;;;;;;;16.37;2.83;;;7.40;99.90;;;;;;4923119;29;20051;-94
2023/12/10 02:52:24;;;;;;;22.47;3.80;;;7.50;99.90;;;;;;4923932;29;20055;-96
2023/12/10 02:54:50;;;;;;;22.57;4.50;;;7.60;99.90;;;;;;4939024;29;20048;-95
2023/12/10 02:57:18;;;;;;;18.07;3.20;;;7.40;99.90;;;;;;4923493;29;20484;-95
2023/12/10 02:59:53;;;;;;;22.87;3.77;;;7.50;99.90;;;;;;4923803;29;20043;-96
2023/12/10 03:02:19;;;;;;;19.80;3.73;;;7.50;99.90;;;;;;4925841;29;20137;-96
2023/12/10 03:04:45;;;;;;;26.50;4.70;;;7.50;99.90;;;;;;4921591;29;20052;-95
2023/12/10 03:07:26;;;;;;;21.97;4.63;;;7.40;99.90;;;;;;4954599;23;20094;-94
2023/12/10 03:09:52;;;;;;;20.50;3.67;;;8.30;99.90;;;;;;4941788;29;20043;-96
2023/12/10 03:12:18;;;;;;;20.37;3.97;;;7.50;99.90;;;;;;4942425;29;20130;-95
2023/12/10 03:14:45;;;;;;;19.27;3.93;;;7.50;99.90;;;;;;4948423;23;20082;-95
2023/12/10 03:17:17;;;;;;;16.20;3.63;;;7.50;99.90;;;;;;4942205;29;20047;-96
2023/12/10 03:25:50;;;;;;;20.20;3.93;;;7.50;99.90;;;;;;4977695;23;20051;-94
2023/12/10 03:28:15;;;;;;;13.67;3.27;;;7.60;99.90;;;;;;4965444;29;20048;-96
2023/12/10 03:30:41;;;;;;;20.33;3.17;;;7.50;99.90;;;;;;4947222;23;20048;-94
2023/12/10 03:33:21;;;;;;;21.27;4.10;;;7.70;99.90;;;;;;4923111;29;20244;-94
2023/12/10 03:35:47;;;;;;;20.97;3.63;;;7.60;99.90;;;;;;4922168;29;20051;-94
2023/12/10 03:39:04;;;;;;;19.20;3.70;;;7.50;99.90;;;;;;4946502;23;20217;-94
2023/12/10 03:41:30;;;;;;;17.83;3.27;;;7.60;99.90;;;;;;4962589;29;20103;-94
2023/12/10 03:44:46;;;;;;;17.40;2.97;;;7.50;99.90;;;;;;4956716;29;20047;-92
2023/12/10 03:47:16;;;;;;;14.63;3.60;;;7.10;99.90;;;;;;4962386;29;20111;-92
2023/12/10 03:50:00;;;;;;;16.10;2.70;;;7.40;99.90;;;;;;4960902;29;20047;-94
2023/12/10 03:52:26;;;;;;;15.40;2.90;;;7.30;99.90;;;;;;4955428;29;20078;-93
2023/12/10 03:55:05;;;;;;;;;;;;;;;;;;;;;
2023/12/10 03:57:52;;;;;;;16.03;3.13;;;7.50;99.90;;;;;;4972253;23;20130;-92
2023/12/10 04:00:21;;;;;;;17.27;2.63;;;7.60;99.90;;;;;;4931044;23;20083;-94
2023/12/10 04:02:47;;;;;;;20.10;3.03;;;7.40;99.90;;;;;;4921272;29;20115;-94
2023/12/10 04:05:22;;;;;;;19.00;3.13;;;7.40;99.90;;;;;;4920769;29;20051;-94
2023/12/10 04:08:03;;;;;;;17.90;3.30;;;7.40;99.90;;;;;;4902197;29;20548;-94
2023/12/10 04:10:29;;;;;;;18.67;2.90;;;7.30;99.90;;;;;;4908622;23;20537;-95
2023/12/10 04:13:45;;;;;;;15.93;3.10;;;7.30;99.90;;;;;;4917826;29;20057;-95
2023/12/10 04:16:23;;;;;;;12.27;2.90;;;7.40;99.90;;;;;;4917651;29;20056;-93
2023/12/10 04:18:49;;;;;;;14.70;2.80;;;7.20;99.90;;;;;;4918018;29;20048;-93
2023/12/10 04:21:22;;;;;;;15.63;3.17;;;7.20;99.90;;;;;;4917766;29;20063;-96
2023/12/10 04:24:03;;;;;;;13.43;2.63;;;7.20;99.90;;;;;;4918567;29;20490;-95
2023/12/10 04:26:37;;;;;;;17.60;3.40;;;7.20;99.90;;;;;;4920266;29;20084;-95
2023/12/10 04:29:09;;;;;;;17.77;3.07;;;7.20;99.90;;;;;;4917878;29;20040;-94
2023/12/10 04:31:44;;;;;;;13.80;3.00;;;7.30;99.90;;;;;;4918760;29;20044;-94
2023/12/10 04:37:00;;;;;;;19.33;2.87;;;7.30;99.90;;;;;;4955199;23;20048;-94
2023/12/10 04:39:55;;;;;;;22.03;3.67;;;7.40;99.90;;;;;;4919820;29;20058;-95
2023/12/10 04:42:21;;;;;;;15.40;3.60;;;7.30;99.90;;;;;;4919977;29;20048;-95
2023/12/10 04:45:00;;;;;;;16.73;2.83;;;7.20;99.90;;;;;;5096548;23;20051;-96
2023/12/10 04:51:05;;;;;;;14.60;2.93;;;7.30;99.90;;;;;;4961328;23;20515;-95
2023/12/10 04:54:22;;;;;;;20.00;3.30;;;6.60;99.90;;;;;;4934525;23;20066;-96
2023/12/10 04:56:57;;;;;;;18.83;3.97;;;7.40;99.90;;;;;;4921096;29;20079;-94
2023/12/10 05:02:00;;;;;;;22.70;4.50;;;7.40;99.90;;;;;;4945137;23;20055;-94
2023/12/10 05:05:16;;;;;;;21.70;3.60;;;8.20;99.90;;;;;;4921087;29;20056;-95
2023/12/10 05:08:45;;;;;;;18.77;3.40;;;7.50;99.90;;;;;;4917187;29;20198;-94
2023/12/10 05:12:01;;;;;;;21.80;3.50;;;8.30;99.90;;;;;;4917623;29;20056;-95
2023/12/10 05:14:30;;;;;;;21.53;3.30;;;7.20;99.90;;;;;;4925453;29;20056;-95
2023/12/10 05:16:57;;;;;;;15.13;3.10;;;7.30;99.90;;;;;;4918433;29;20040;-95
2023/12/10 05:19:23;;;;;;;18.47;3.20;;;7.40;99.90;;;;;;4917386;29;20138;-93
2023/12/10 05:22:07;;;;;;;16.63;3.50;;;7.40;99.90;;;;;;4920729;29;20064;-94
2023/12/10 05:24:33;;;;;;;;;;;7.50;99.90;;;;;;4920466;29;20051;-95
2023/12/10 05:26:59;;;;;;;20.30;3.17;;;7.50;99.90;;;;;;4916686;29;19931;-96
2023/12/10 05:29:40;;;;;;;19.27;3.17;;;7.60;99.90;;;;;;4916939;29;20105;-91
2023/12/10 05:32:13;;;;;;;20.33;3.87;;;7.40;99.90;;;;;;4915509;29;20056;-93
2023/12/10 05:34:57;;;;;;;17.35;3.38;;;7.40;99.90;;;;;;4916381;29;20040;-91
2023/12/10 05:37:22;;;;;;;;;;;7.50;99.90;;;;;;4914875;29;20088;-94
2023/12/10 05:40:25;;;;;;;19.70;3.40;;;7.50;99.90;;;;;;4925180;29;19928;-96
2023/12/10 05:43:00;;;;;;;20.10;3.57;;;7.00;99.90;;;;;;4920040;29;20127;-95
2023/12/10 05:45:50;;;;;;;23.03;4.13;;;7.50;99.90;;;;;;4923498;29;20480;-95
2023/12/10 05:48:22;;;;;;;21.90;4.23;;;6.90;99.90;;;;;;4912351;29;20496;-96
2023/12/10 05:51:01;;;;;;;15.47;3.63;;;7.60;99.90;;;;;;4944953;23;20051;-94
2023/12/10 05:56:13;;;;;;;18.58;4.10;;;7.60;99.90;;;;;;4987106;23;20059;-93
2023/12/10 05:58:50;;;;;;;18.70;4.10;;;7.60;99.90;;;;;;4953557;29;20074;-94
2023/12/10 06:01:24;;;;;;;17.23;4.10;;;7.70;99.90;;;;;;4948099;29;20043;-94
2023/12/10 06:03:50;;;;;;;18.37;3.77;;;7.50;99.90;;;;;;4946105;29;20047;-93
2023/12/10 06:06:16;;;;;;;20.40;4.03;;;7.60;99.90;;;;;;4952809;29;20023;-94
2023/12/10 06:11:21;;;;;;;17.20;3.23;;;7.70;99.90;;;;;;5748128;23;20073;-94
2023/12/10 06:18:05;;;;;;;14.10;3.10;;;8.60;99.90;;;;;;5347987;23;20055;-95
2023/12/10 06:32:54;;;;;;;16.00;2.73;;;7.90;99.90;;;;;;5466118;23;21375;-94
2023/12/10 06:48:34;;;;;;;15.03;3.47;;;7.90;99.90;;;;;;5242255;23;20063;-95
2023/12/10 06:53:53;;;;;;;14.97;2.87;;;7.90;99.90;;;;;;4960860;23;20064;-94
2023/12/10 06:56:39;;;;;;;18.27;3.40;;;7.80;99.90;;;;;;4903905;29;20048;-94
2023/12/10 06:59:31;;;;;;;17.33;3.60;;;7.40;99.90;;;;;;5194183;23;20298;-94
2023/12/10 07:05:58;;;;;;;17.70;3.40;;;8.10;99.90;;;;;;4864876;29;20526;-90
2023/12/10 07:08:28;;;;;;;15.30;3.27;;;7.70;99.90;;;;;;5185650;23;20055;-92
2023/12/10 07:14:15;;;;;;;12.18;2.78;;;7.80;99.90;;;;;;5213627;23;20103;-92
2023/12/10 07:17:41;;;;;;;13.37;2.40;;;8.20;99.90;;;;;;4939344;29;20134;-92
2023/12/10 07:20:35;;;;;;;11.10;2.30;;;8.60;99.90;;;;;;4916333;29;20112;-94
2023/12/10 07:23:32;;;;;;;;;;;7.80;99.90;;;;;;4919638;29;20052;-90
2023/12/10 07:26:10;;;;;;;11.97;2.40;;;7.70;99.90;;;;;;4936716;29;19922;-90
2023/12/10 07:33:54;;;;;;;11.90;2.30;;;7.90;99.90;;;;;;5034218;23;20057;-90
2023/12/10 07:36:28;;;;;;;16.43;2.80;;;6.80;99.90;;;;;;4955079;29;20141;-90
2023/12/10 07:39:04;;;;;;;;;;;7.90;99.90;;;;;;4956984;28;20073;-90
2023/12/10 07:41:39;;;;;;;14.33;2.97;;;7.80;99.90;;;;;;4956113;29;20469;-90
2023/12/10 07:44:54;;;;;;;14.57;2.87;;;7.80;99.90;;;;;;4955281;29;20071;-91
2023/12/10 07:47:37;;;;;;;13.47;3.33;;;7.60;99.90;;;;;;4927161;29;20150;-90
2023/12/10 07:50:10;;;;;;;14.63;3.00;;;7.90;99.90;;;;;;4955641;29;20058;-91
2023/12/10 07:53:04;;;;;;;10.82;2.90;;;7.80;99.90;;;;;;4955291;29;20050;-92
2023/12/10 07:55:39;;;;;;;14.00;3.57;;;7.00;99.90;;;;;;4928972;29;20419;-91
2023/12/10 08:02:12;;;;;;;;;;;;;;;;;;;;;
2023/12/10 08:08:06;;;;;;;;;;;;;;;;;;;;;
2023/12/10 08:16:33;;;;;;;13.93;3.73;;;7.10;99.90;;;;;;4933379;29;20146;-91
2023/12/10 08:19:00;;;;;;;12.90;2.50;;;7.80;99.90;;;;;;4939135;29;20182;-90
2023/12/10 08:21:41;;;;;;;13.05;2.55;;;7.70;99.90;;;;;;4940674;29;20481;-91
2023/12/10 08:24:09;;;;;;;12.57;2.90;;;7.80;99.90;;;;;;4944346;29;20522;-91
2023/12/10 08:26:35;;;;;;;16.60;2.63;;;7.90;99.90;;;;;;4939741;29;20073;-90
2023/12/10 08:29:01;;;;;;;13.33;3.67;;;7.10;99.90;;;;;;4939232;29;20090;-92
2023/12/10 08:31:29;;;;;;;14.17;2.50;;;7.70;99.90;;;;;;4944408;29;20055;-91
2023/12/10 08:33:58;;;;;;;13.83;3.10;;;7.90;99.90;;;;;;4940195;29;20090;-90
2023/12/10 08:36:32;;;;;;;18.93;3.53;;;7.00;99.90;;;;;;4940219;29;20047;-90
2023/12/10 08:39:02;;;;;;;18.97;4.47;;;6.80;99.90;;;;;;4959031;29;20054;-90
2023/12/10 08:41:28;;;;;;;17.57;4.17;;;7.70;99.90;;;;;;4938794;29;20054;-90
2023/12/10 08:44:22;;;;;;;;;;;;;;;;;;;;;
2023/12/10 08:47:35;;;;;;;13.07;2.73;;;7.80;99.90;;;;;;4916003;29;20059;-90
2023/12/10 08:50:12;;;;;;;;;;;;;;;;;;;;;
2023/12/10 08:53:52;;;;;;;13.97;2.93;;;6.80;99.90;;;;;;4931749;29;20106;-90
2023/12/10 08:59:20;;;;;;;19.67;3.50;;;7.80;99.90;;;;;;5023160;23;20500;-91
2023/12/10 09:01:55;;;;;;;26.30;3.97;;;7.70;99.90;;;;;;4920054;29;20048;-90
2023/12/10 09:04:46;;;;;;;17.07;4.10;;;7.80;99.90;;;;;;4936434;29;20058;-89
2023/12/10 09:10:14;;;;;;;21.70;4.40;;;7.80;99.90;;;;;;4882397;29;20051;-90
2023/12/10 09:12:47;;;;;;;19.90;3.70;;;8.00;99.90;;;;;;4920480;29;20051;-90
2023/12/10 09:18:16;;;;;;;19.27;4.23;;;7.90;99.90;;;;;;5102200;23;20460;-90
2023/12/10 09:20:42;;;;;;;22.38;5.10;;;7.80;99.90;;;;;;4938284;29;20047;-91
2023/12/10 09:23:29;;;;;;;19.13;3.70;;;7.90;99.90;;;;;;4937576;29;20395;-91
2023/12/10 09:26:30;;;;;;;;;;;;;;;;;;;;;
2023/12/10 09:29:38;;;;;;;21.13;4.80;;;7.40;99.90;;;;;;4843688;29;20063;-91
2023/12/10 09:32:10;;;;;;;16.40;4.73;;;7.20;99.90;;;;;;4938623;29;20051;-90
2023/12/10 09:34:46;;;;;;;;;;;;;;;;;;;;;
2023/12/10 09:37:30;;;;;;;24.97;4.40;;;7.80;99.90;;;;;;4958555;28;20051;-90
2023/12/10 09:50:30;;;;;;;18.00;4.50;;;7.80;99.90;;;;;;5000489;23;20055;-92
2023/12/10 09:53:22;;;;;;;22.23;4.43;;;7.90;99.90;;;;;;4939134;29;20051;-91
2023/12/10 09:55:54;;;;;;;26.00;6.20;;;8.30;99.90;;;;;;4940360;29;20105;-93
2023/12/10 09:58:19;;;;;;;25.97;6.47;;;8.60;99.90;;;;;;4940005;29;20055;-90
2023/12/10 10:00:45;;;;;;;16.25;3.60;;;8.00;99.90;;;;;;4940566;29;20459;-90
2023/12/10 10:03:14;;;;;;;22.03;4.73;;;7.90;99.90;;;;;;4940258;29;20054;-91
2023/12/10 10:05:43;;;;;;;30.87;5.40;;;8.00;99.90;;;;;;4942744;29;20055;-92
2023/12/10 10:08:09;;;;;;;25.30;4.30;;;8.00;99.90;;;;;;4940804;29;20126;-90
2023/12/10 10:11:03;;;;;;;20.80;3.80;;;8.00;99.90;;;;;;4938986;29;20424;-90
2023/12/10 10:13:29;;;;;;;20.05;4.45;;;8.00;99.90;;;;;;4938041;29;20077;-90
2023/12/10 10:15:55;;;;;;;23.40;4.67;;;7.90;99.90;;;;;;4938988;29;20451;-91
2023/12/10 10:18:27;;;;;;;31.03;4.70;;;7.90;99.90;;;;;;4938807;29;20043;-90
2023/12/10 10:21:19;;;;;;;22.63;4.40;;;8.30;99.90;;;;;;5040491;23;20047;-90
2023/12/10 10:27:53;;;;;;;26.47;4.47;;;7.80;99.90;;;;;;4939844;29;20130;-90
2023/12/10 10:31:38;;;;;;;29.33;6.27;;;8.10;99.90;;;;;;4865783;29;20089;-89
2023/12/10 10:35:01;;;;;;;;;;;;;;;;;;;;;
2023/12/10 10:40:16;;;;;;;;;;;;;;;;;;;;;
2023/12/10 10:43:03;;;;;;;25.87;5.93;;;8.00;99.90;;;;;;4941985;29;20509;-91
2023/12/10 10:48:53;;;;;;;;;;;;;;;;;;;;;
2023/12/10 10:52:08;;;;;;;32.67;4.67;;;9.50;99.90;;;;;;4929650;29;20149;-91
2023/12/10 10:55:26;;;;;;;20.83;4.80;;;8.00;99.90;;;;;;4942595;29;20059;-92
2023/12/10 10:58:18;;;;;;;23.43;5.03;;;8.00;99.90;;;;;;4941706;29;20059;-90
2023/12/10 11:01:25;;;;;;;25.77;4.63;;;8.10;99.90;;;;;;4934965;29;20051;-91
2023/12/10 11:04:13;;;;;;;;;;;;;;;;;;;;;
2023/12/10 11:07:00;;;;;;;21.00;4.50;;;8.00;99.90;;;;;;4938710;29;20066;-91
2023/12/10 11:13:46;;;;;;;25.20;4.32;;;8.00;99.90;;;;;;4857356;29;20099;-90
2023/12/10 11:17:21;;;;;;;25.47;4.63;;;8.10;99.90;;;;;;4882418;29;20052;-91
2023/12/10 11:20:46;;;;;;;24.87;3.93;;;8.00;99.90;;;;;;4854587;29;20033;-92
2023/12/10 11:23:53;;;;;;;;;;;;;;;;;;;;;
2023/12/10 11:27:02;;;;;;;25.50;3.97;;;8.00;99.90;;;;;;5024752;23;20071;-91
2023/12/10 11:29:33;;;;;;;19.50;4.30;;;8.40;99.90;;;;;;4948650;29;20075;-92
2023/12/10 11:32:27;;;;;;;23.83;4.87;;;8.10;99.90;;;;;;4942569;29;20058;-91
2023/12/10 11:35:29;;;;;;;;;;;;;;;;;;;;;
2023/12/10 11:41:41;;;;;;;;;;;;;;;;;;;;;
2023/12/10 11:51:48;;;;;;;19.75;4.10;;;8.40;99.90;;;;;;4955942;28;20087;-91
2023/12/10 11:54:17;;;;;;;47.70;6.57;;;8.50;99.90;;;;;;4863472;29;20105;-92
2023/12/10 11:57:26;;;;;;;24.17;4.50;;;8.30;99.90;;;;;;4863319;29;20161;-90
2023/12/10 12:00:06;;;;;;;;;;;;;;;;;;;;;
2023/12/10 12:03:11;;;;;;;;;;;;;;;;;;;;;
2023/12/10 12:05:55;;;;;;;23.37;3.70;;;8.50;99.90;;;;;;4939424;29;20051;-91
2023/12/10 12:08:39;;;;;;;23.43;3.53;;;8.50;99.90;;;;;;4940536;29;20047;-91
2023/12/10 12:11:05;;;;;;;24.83;4.03;;;8.50;99.90;;;;;;4939611;29;20057;-91
2023/12/10 12:16:52;;;;;;;20.35;3.80;;;9.10;99.90;;;;;;4945347;29;20062;-90
2023/12/10 12:19:26;;;;;;;20.13;3.70;;;8.50;99.90;;;;;;4930715;23;20515;-91
2023/12/10 12:24:57;;;;;;;;;;;;;;;;;;;;;
2023/12/10 12:27:51;;;;;;;19.63;3.35;;;8.30;99.90;;;;;;4933753;29;20111;-89
2023/12/10 12:30:49;;;;;;;21.80;3.43;;;8.50;99.90;;;;;;4920038;29;20134;-91
2023/12/10 12:33:18;;;;;;;18.15;4.15;;;8.40;99.90;;;;;;4928018;29;20091;-90
2023/12/10 12:35:44;;;;;;;17.85;5.55;;;7.90;99.90;;;;;;4944710;29;20067;-90
2023/12/10 12:38:10;;;;;;;24.38;4.05;;;8.30;99.90;;;;;;4940730;29;20083;-90
2023/12/10 12:40:38;;;;;;;18.90;3.55;;;8.30;99.90;;;;;;4930901;29;20161;-90
2023/12/10 12:43:04;;;;;;;21.08;3.90;;;8.30;99.90;;;;;;4919361;29;20058;-91
2023/12/10 12:45:37;;;;;;;21.55;3.50;;;8.40;99.90;;;;;;4920031;29;20048;-90
2023/12/10 12:48:06;;;;;;;15.23;3.10;;;8.40;99.90;;;;;;4934834;29;20436;-90
2023/12/10 12:50:32;;;;;;;19.58;3.65;;;8.40;99.90;;;;;;4919722;29;20051;-91
2023/12/10 12:52:58;;;;;;;19.47;3.40;;;8.40;99.90;;;;;;4919103;29;20254;-91
2023/12/10 12:55:58;;;;;;;14.98;3.70;;;8.30;99.90;;;;;;4925172;23;20051;-91
2023/12/10 12:58:33;;;;;;;20.38;3.95;;;8.20;99.90;;;;;;4919915;29;20094;-89
2023/12/10 13:01:06;;;;;;;19.98;3.35;;;8.30;99.90;;;;;;4918905;29;20052;-91
2023/12/10 13:03:32;;;;;;;14.93;2.93;;;8.30;99.90;;;;;;4919610;29;20047;-90
2023/12/10 13:06:16;;;;;;;16.20;2.67;;;8.30;99.90;;;;;;4923144;29;20471;-90
2023/12/10 13:08:45;;;;;;;12.68;2.88;;;8.30;99.90;;;;;;4919144;29;20047;-90
2023/12/10 13:11:11;;;;;;;25.38;4.25;;;8.40;99.90;;;;;;4918458;29;20106;-91
2023/12/10 13:13:49;;;;;;;15.33;2.93;;;7.40;99.90;;;;;;4919598;29;20051;-90
2023/12/10 13:16:33;;;;;;;19.42;3.70;;;8.40;99.90;;;;;;4920017;29;20071;-91
2023/12/10 13:19:07;;;;;;;;;;;8.30;99.90;;;;;;4920022;29;20059;-90
2023/12/10 13:21:33;;;;;;;14.82;3.38;;;8.20;99.90;;;;;;4935874;29;19923;-90
2023/12/10 13:23:59;;;;;;;13.47;2.80;;;7.50;99.90;;;;;;4919393;29;20044;-89
2023/12/10 13:26:28;;;;;;;17.33;3.00;;;8.20;99.90;;;;;;4919450;29;20059;-92
2023/12/10 13:29:10;;;;;;;15.30;3.13;;;8.40;99.90;;;;;;4934586;29;20106;-90
2023/12/10 13:31:36;;;;;;;19.00;3.33;;;8.30;99.90;;;;;;4925641;23;20512;-90
2023/12/10 13:34:05;;;;;;;21.40;3.77;;;8.30;99.90;;;;;;4918938;29;20048;-90
2023/12/10 13:36:31;;;;;;;16.42;3.53;;;8.10;99.90;;;;;;4918784;29;20051;-90
2023/12/10 13:39:12;;;;;;;15.93;3.80;;;8.30;99.90;;;;;;4919306;29;20102;-90
2023/12/10 13:41:38;;;;;;;15.10;4.33;;;8.20;99.90;;;;;;4918773;29;20051;-89
2023/12/10 13:44:07;;;;;;;19.97;3.63;;;8.20;99.90;;;;;;4918475;29;20054;-89
2023/12/10 13:46:33;;;;;;;18.63;3.63;;;8.10;99.90;;;;;;4918759;29;20484;-89
2023/12/10 13:49:01;;;;;;;18.53;3.13;;;8.20;99.90;;;;;;4918686;29;20090;-89
2023/12/10 13:51:27;;;;;;;19.23;4.00;;;8.20;99.90;;;;;;4918560;29;20488;-89
2023/12/10 13:53:53;;;;;;;18.08;3.10;;;8.30;99.90;;;;;;4920694;29;20039;-90
2023/12/10 13:56:28;;;;;;;21.15;4.63;;;8.10;99.90;;;;;;4920317;29;20051;-91
2023/12/10 13:58:54;;;;;;;16.27;3.37;;;8.10;99.90;;;;;;4937185;29;20044;-90
2023/12/10 14:01:22;;;;;;;18.02;3.95;;;8.30;99.90;;;;;;4923409;29;20043;-91
2023/12/10 14:03:52;;;;;;;18.70;3.10;;;8.10;99.90;;;;;;4919476;29;20052;-90
2023/12/10 14:06:23;;;;;;;13.73;2.43;;;8.20;99.90;;;;;;4919515;29;20145;-90
2023/12/10 14:08:49;;;;;;;16.33;3.90;;;8.10;99.90;;;;;;4918962;29;20135;-91
2023/12/10 14:11:18;;;;;;;14.93;2.60;;;8.20;99.90;;;;;;4918154;29;20147;-90
2023/12/10 14:13:43;;;;;;;14.37;2.50;;;7.80;99.90;;;;;;4918467;29;20234;-91
2023/12/10 14:16:09;;;;;;;15.30;3.17;;;8.10;99.90;;;;;;4921993;29;20130;-90
2023/12/10 14:18:35;;;;;;;17.23;3.35;;;8.20;99.90;;;;;;4938046;29;20507;-91
2023/12/10 14:21:01;;;;;;;17.23;3.13;;;8.30;99.90;;;;;;4922396;29;20044;-90
2023/12/10 14:23:27;;;;;;;17.20;4.07;;;8.10;99.90;;;;;;4922289;29;20428;-90
2023/12/10 14:25:52;;;;;;;19.43;3.93;;;8.10;99.90;;;;;;4922420;29;20044;-90
2023/12/10 14:28:18;;;;;;;17.73;2.77;;;8.00;99.90;;;;;;4922842;29;20498;-90
2023/12/10 14:30:44;;;;;;;13.97;2.83;;;8.00;99.90;;;;;;4925530;29;20055;-89
2023/12/10 14:33:10;;;;;;;20.13;3.33;;;8.00;99.90;;;;;;4957205;29;20056;-89
2023/12/10 14:35:47;;;;;;;16.97;3.20;;;7.90;99.90;;;;;;4958315;29;20126;-89
2023/12/10 14:38:13;;;;;;;16.83;2.97;;;8.00;99.90;;;;;;4957296;29;20059;-91
2023/12/10 14:40:39;;;;;;;15.27;3.07;;;7.90;99.90;;;;;;4959953;29;20178;-89
2023/12/10 14:43:30;;;;;;;18.47;3.77;;;7.90;99.90;;;;;;4957792;29;20051;-89
2023/12/10 14:46:10;;;;;;;17.17;3.03;;;7.90;99.90;;;;;;4956214;29;20484;-90
2023/12/10 14:48:36;;;;;;;18.23;3.33;;;8.00;99.90;;;;;;4957097;29;20043;-90
2023/12/10 14:51:02;;;;;;;17.53;3.37;;;7.90;99.90;;;;;;4957983;28;20047;-89
2023/12/10 14:53:28;;;;;;;17.60;3.37;;;7.80;99.90;;;;;;4958009;29;20395;-89
2023/12/10 14:56:04;;;;;;;16.90;3.83;;;7.80;99.90;;;;;;4957175;29;20134;-90
2023/12/10 14:58:31;;;;;;;19.13;2.50;;;7.80;99.90;;;;;;4957981;28;20179;-89
2023/12/10 15:00:56;;;;;;;13.90;2.13;;;7.80;99.90;;;;;;4955853;29;20062;-89
2023/12/10 15:03:23;;;;;;;21.67;3.33;;;7.80;99.90;;;;;;4956578;29;20040;-89
2023/12/10 15:05:49;;;;;;;13.30;2.50;;;7.80;99.90;;;;;;4956965;29;20055;-89
2023/12/10 15:08:24;;;;;;;16.40;2.30;;;7.90;99.90;;;;;;4955881;29;20047;-89
2023/12/10 15:10:50;;;;;;;10.40;2.60;;;8.10;99.90;;;;;;4958239;28;20559;-89
2023/12/10 15:13:16;;;;;;;18.00;2.50;;;7.80;99.90;;;;;;4956195;29;20432;-90
2023/12/10 15:15:43;;;;;;;15.07;2.50;;;7.70;99.90;;;;;;4956236;29;20051;-89
2023/12/10 15:18:08;;;;;;;11.37;2.90;;;7.70;99.90;;;;;;4956145;29;20053;-89
2023/12/10 15:21:31;;;;;;;12.77;2.93;;;7.80;99.90;;;;;;4956786;29;20043;-89
2023/12/10 15:24:12;;;;;;;12.70;2.60;;;7.60;99.90;;;;;;4898982;29;20061;-89
2023/12/10 15:26:38;;;;;;;15.20;2.73;;;7.70;99.90;;;;;;4882801;29;20482;-89
2023/12/10 15:29:05;;;;;;;14.37;2.50;;;7.60;99.90;;;;;;4902946;23;20064;-89
2023/12/10 15:31:34;;;;;;;17.43;3.70;;;7.50;99.90;;;;;;4960372;28;20078;-89
2023/12/10 15:34:52;;;;;;;13.57;2.73;;;7.50;99.90;;;;;;4957665;29;20039;-89
2023/12/10 15:37:18;;;;;;;11.77;2.33;;;8.30;99.90;;;;;;4947207;29;20086;-89
2023/12/10 15:39:47;;;;;;;10.67;2.90;;;7.40;99.90;;;;;;4943863;29;20082;-89
2023/12/10 15:42:21;;;;;;;13.60;2.93;;;7.20;99.90;;;;;;4940701;29;20055;-89
2023/12/10 15:44:53;;;;;;;13.20;2.47;;;7.40;99.90;;;;;;4941527;29;20082;-90
2023/12/10 15:47:37;;;;;;;14.60;3.20;;;7.50;99.90;;;;;;4941919;29;20439;-89
2023/12/10 15:50:06;;;;;;;10.50;2.60;;;7.40;99.90;;;;;;4939057;29;20043;-89
2023/12/10 15:59:39;;;;;;;21.00;3.22;;;7.70;99.90;;;;;;4968372;23;20098;-96
2023/12/10 16:02:23;;;;;;;17.87;2.80;;;7.60;99.90;;;;;;4939312;29;20519;-96
2023/12/10 16:04:49;;;;;;;18.52;3.22;;;7.70;99.90;;;;;;4965530;23;20468;-96
2023/12/10 16:10:45;;;;;;;;;;;;;;;;;;;;;
2023/12/10 16:19:33;;;;;;;21.77;3.50;;;7.70;99.90;;;;;;5251787;23;20070;-94
2023/12/10 16:29:36;;;;;;;19.93;3.93;;;7.80;99.90;;;;;;5134192;23;20407;-95
2023/12/10 16:35:59;;;;;;;20.53;4.67;;;7.20;99.90;;;;;;4965997;23;20106;-89
2023/12/10 16:38:45;;;;;;;19.00;3.80;;;8.10;99.90;;;;;;4917643;29;20393;-89
2023/12/10 16:41:17;;;;;;;21.65;4.88;;;9.30;99.90;;;;;;4919594;29;20046;-90
2023/12/10 16:43:54;;;;;;;24.43;4.90;;;7.80;99.90;;;;;;4919140;29;20102;-89
2023/12/10 16:46:54;;;;;;;20.67;4.63;;;7.80;99.90;;;;;;4924006;23;20052;-88
2023/12/10 16:49:21;;;;;;;17.75;3.83;;;7.70;99.90;;;;;;4918862;29;20091;-87
2023/12/10 16:52:02;;;;;;;24.57;4.73;;;7.90;99.90;;;;;;4918801;29;20048;-88
2023/12/10 16:54:37;;;;;;;27.10;5.53;;;8.00;99.90;;;;;;4918540;29;20130;-87
2023/12/10 16:57:12;;;;;;;25.70;4.80;;;7.90;99.90;;;;;;4920387;29;20048;-95
2023/12/10 16:59:41;;;;;;;27.13;5.30;;;8.10;99.90;;;;;;4923334;29;20110;-93
2023/12/10 17:02:32;;;;;;;26.60;5.73;;;8.00;99.90;;;;;;4922997;29;20479;-95
2023/12/10 17:10:27;;;;;;;28.17;5.23;;;8.10;99.90;;;;;;3284897;26;20059;-96
2023/12/10 17:12:53;;;;;;;22.77;4.63;;;8.10;99.90;;;;;;4921218;29;20532;-94
2023/12/10 17:15:49;;;;;;;25.03;4.70;;;8.00;99.90;;;;;;4942640;23;20055;-94
2023/12/10 17:19:02;;;;;;;20.30;4.72;;;8.20;99.90;;;;;;4930995;29;20126;-93
2023/12/10 17:21:58;;;;;;;;;;;;;;;;;;;;;